Time;durP1;ratioP1;P1;durP2;ratioP2;P2;SDS_P1;SDS_P2;PMS_P1;PMS_P2;Temp;Humidity;BMP_temperature;BMP_pressure;BME280_temperature;BME280_humidity;BME280_pressure;Samples;Min_cycle;Max_cycle;Signal;HPM_P1;HPM_P2
2023/07/15 00:01:02;;;;;;;6.30;6.10;;;21.00;99.90;;;;;;4993321;28;20202;-70
2023/07/15 00:03:29;;;;;;;7.55;7.25;;;21.00;99.90;;;;;;4994678;28;20265;-69
2023/07/15 00:05:57;;;;;;;6.07;5.88;;;21.00;99.90;;;;;;4993499;28;20747;-69
2023/07/15 00:08:24;;;;;;;6.28;6.07;;;21.00;99.90;;;;;;4993666;28;20206;-68
2023/07/15 00:10:51;;;;;;;6.72;6.53;;;21.00;99.90;;;;;;4992670;28;20955;-68
2023/07/15 00:13:20;;;;;;;6.72;6.53;;;20.90;99.90;;;;;;4993309;28;20198;-68
2023/07/15 00:15:53;;;;;;;5.88;5.68;;;20.80;99.90;;;;;;4993561;28;20257;-70
2023/07/15 00:18:20;;;;;;;13.13;12.63;;;20.80;99.90;;;;;;4993341;28;20218;-68
2023/07/15 00:20:47;;;;;;;6.35;6.15;;;20.90;99.90;;;;;;4992611;28;20701;-67
2023/07/15 00:23:19;;;;;;;6.30;6.10;;;20.80;99.90;;;;;;4993259;28;20833;-68
2023/07/15 00:25:47;;;;;;;6.13;5.93;;;20.70;99.90;;;;;;5024430;22;20252;-67
2023/07/15 00:28:14;;;;;;;6.88;6.57;;;20.80;99.90;;;;;;5012291;28;20293;-65
2023/07/15 00:30:41;;;;;;;6.50;6.30;;;20.80;99.90;;;;;;5012397;28;20209;-65
2023/07/15 00:33:15;;;;;;;6.60;6.40;;;20.90;99.90;;;;;;5012325;28;20213;-67
2023/07/15 00:35:43;;;;;;;6.55;6.35;;;20.90;99.90;;;;;;5012245;28;20236;-66
2023/07/15 00:38:11;;;;;;;7.50;7.20;;;21.00;99.90;;;;;;5012212;28;20213;-68
2023/07/15 00:40:40;;;;;;;6.20;6.00;;;21.00;99.90;;;;;;5011138;28;20205;-65
2023/07/15 00:43:44;;;;;;;7.03;6.72;;;21.00;99.90;;;;;;5011730;28;20315;-65
2023/07/15 00:46:34;;;;;;;6.13;5.93;;;21.00;99.90;;;;;;5004934;28;20723;-67
2023/07/15 00:49:04;;;;;;;7.53;7.22;;;21.00;99.90;;;;;;5019369;28;20209;-65
2023/07/15 00:51:35;;;;;;;6.07;5.88;;;21.00;99.90;;;;;;5020916;28;20616;-68
2023/07/15 00:54:03;;;;;;;6.18;5.97;;;21.00;99.90;;;;;;5012625;28;20204;-67
2023/07/15 00:56:32;;;;;;;6.05;5.85;;;21.00;99.90;;;;;;5011608;28;20205;-67
2023/07/15 00:58:59;;;;;;;5.90;5.70;;;21.00;99.90;;;;;;5012631;28;20209;-66
2023/07/15 01:01:28;;;;;;;6.13;5.93;;;20.90;99.90;;;;;;5012220;28;20229;-66
2023/07/15 01:03:56;;;;;;;6.05;5.85;;;20.90;99.90;;;;;;5012489;28;20221;-66
2023/07/15 01:06:23;;;;;;;6.25;6.05;;;20.90;99.90;;;;;;5012773;28;20260;-66
2023/07/15 01:08:50;;;;;;;6.20;6.00;;;20.90;99.90;;;;;;5012856;28;20247;-67
2023/07/15 01:11:17;;;;;;;6.38;6.18;;;20.80;99.90;;;;;;5010440;28;20300;-66
2023/07/15 01:13:44;;;;;;;13.73;13.20;;;20.80;99.90;;;;;;5011164;28;20201;-68
2023/07/15 01:16:11;;;;;;;7.03;6.80;;;20.80;99.90;;;;;;5011325;28;20745;-66
2023/07/15 01:18:39;;;;;;;6.40;6.20;;;20.80;99.90;;;;;;5011407;28;20489;-65
2023/07/15 01:21:06;;;;;;;15.27;14.68;;;20.70;99.90;;;;;;5011385;28;20209;-65
2023/07/15 01:23:35;;;;;;;7.10;6.90;;;20.70;99.90;;;;;;5010594;28;20632;-66
2023/07/15 01:26:02;;;;;;;6.53;6.32;;;20.70;99.90;;;;;;5010478;28;20233;-65
2023/07/15 01:28:29;;;;;;;8.20;7.90;;;20.70;99.90;;;;;;5010647;28;20292;-65
2023/07/15 01:30:58;;;;;;;7.03;6.82;;;20.70;99.90;;;;;;5010195;28;20746;-67
2023/07/15 01:33:25;;;;;;;7.10;6.80;;;20.70;99.90;;;;;;5010606;28;20201;-66
2023/07/15 01:35:52;;;;;;;7.03;6.78;;;20.70;99.90;;;;;;5010693;28;20241;-66
2023/07/15 01:38:19;;;;;;;7.07;6.88;;;20.70;99.90;;;;;;5010592;28;20637;-66
2023/07/15 01:40:47;;;;;;;7.40;7.20;;;20.70;99.90;;;;;;5009860;28;20205;-66
2023/07/15 01:43:14;;;;;;;7.55;7.25;;;20.70;99.90;;;;;;5010299;28;20723;-68
2023/07/15 01:45:41;;;;;;;6.82;6.53;;;20.70;99.90;;;;;;5010613;28;20253;-65
2023/07/15 01:48:08;;;;;;;6.65;6.35;;;20.70;99.90;;;;;;5010630;28;20209;-66
2023/07/15 01:50:36;;;;;;;6.75;6.55;;;20.80;99.90;;;;;;5009595;28;20731;-65
2023/07/15 01:53:03;;;;;;;6.85;6.65;;;20.70;99.90;;;;;;5010445;28;20295;-66
2023/07/15 01:55:30;;;;;;;6.45;6.25;;;20.70;99.90;;;;;;5013315;28;20259;-66
2023/07/15 01:57:58;;;;;;;6.50;6.30;;;20.80;99.90;;;;;;5012621;28;20288;-66
2023/07/15 02:00:25;;;;;;;6.20;6.00;;;20.80;99.90;;;;;;5010263;28;20209;-65
2023/07/15 02:02:52;;;;;;;6.47;6.28;;;20.80;99.90;;;;;;5009064;28;20209;-67
2023/07/15 02:05:18;;;;;;;6.70;6.50;;;20.80;99.90;;;;;;5010074;28;20339;-67
2023/07/15 02:07:45;;;;;;;6.70;6.20;;;20.80;99.90;;;;;;5010266;28;20205;-66
2023/07/15 02:10:12;;;;;;;6.72;6.53;;;20.80;99.90;;;;;;5010023;28;20216;-65
2023/07/15 02:12:39;;;;;;;7.40;7.10;;;20.80;99.90;;;;;;5010807;28;20209;-66
2023/07/15 02:15:08;;;;;;;6.35;6.15;;;20.80;99.90;;;;;;5011257;28;20313;-66
2023/07/15 02:17:35;;;;;;;6.43;6.22;;;20.80;99.90;;;;;;5011217;28;20205;-66
2023/07/15 02:20:06;;;;;;;6.63;6.43;;;20.80;99.90;;;;;;5013974;28;20506;-65
2023/07/15 02:22:33;;;;;;;11.55;11.05;;;20.80;99.90;;;;;;5011429;28;20256;-66
2023/07/15 02:25:00;;;;;;;6.70;6.50;;;20.70;99.90;;;;;;5010737;28;20239;-65
2023/07/15 02:27:27;;;;;;;6.63;6.43;;;20.70;99.90;;;;;;5014976;28;20201;-66
2023/07/15 02:29:54;;;;;;;6.47;6.28;;;20.70;99.90;;;;;;5012260;28;20205;-66
2023/07/15 02:32:38;;;;;;;6.65;6.45;;;20.70;99.90;;;;;;5011594;28;20201;-66
2023/07/15 02:35:08;;;;;;;7.35;7.05;;;20.70;99.90;;;;;;5011479;28;20252;-67
2023/07/15 02:37:35;;;;;;;6.65;6.45;;;20.70;99.90;;;;;;5011094;28;20689;-66
2023/07/15 02:40:03;;;;;;;6.90;6.70;;;20.70;99.90;;;;;;5010891;28;20241;-67
2023/07/15 02:42:33;;;;;;;6.70;6.50;;;20.70;99.90;;;;;;5011057;28;20209;-67
2023/07/15 02:45:01;;;;;;;6.40;6.20;;;20.70;99.90;;;;;;5011230;28;20320;-65
2023/07/15 02:47:28;;;;;;;6.30;6.10;;;20.70;99.90;;;;;;5011095;28;20201;-67
2023/07/15 02:49:58;;;;;;;7.15;6.85;;;20.70;99.90;;;;;;5010472;28;20701;-66
2023/07/15 02:52:25;;;;;;;9.23;8.93;;;20.70;99.90;;;;;;5009801;28;20235;-66
2023/07/15 02:54:52;;;;;;;6.50;6.30;;;20.70;99.90;;;;;;5011526;28;20687;-66
2023/07/15 02:57:19;;;;;;;6.55;6.35;;;20.60;99.90;;;;;;5011287;28;20559;-66
2023/07/15 02:59:49;;;;;;;6.15;5.95;;;20.70;99.90;;;;;;5009252;28;20478;-66
2023/07/15 03:02:16;;;;;;;6.25;6.05;;;20.60;99.90;;;;;;5009294;28;20297;-66
2023/07/15 03:04:43;;;;;;;6.75;6.55;;;20.60;99.90;;;;;;5009353;28;20303;-67
2023/07/15 03:07:13;;;;;;;6.22;6.03;;;20.60;99.90;;;;;;5008898;28;20202;-68
2023/07/15 03:09:40;;;;;;;6.78;6.55;;;20.60;99.90;;;;;;5008724;28;20209;-68
2023/07/15 03:12:08;;;;;;;6.70;6.47;;;20.60;99.90;;;;;;5010284;28;20209;-66
2023/07/15 03:14:35;;;;;;;6.75;6.55;;;20.60;99.90;;;;;;5013410;28;20229;-66
2023/07/15 03:17:02;;;;;;;6.70;6.50;;;20.50;99.90;;;;;;5013149;28;20299;-68
2023/07/15 03:19:30;;;;;;;6.60;6.40;;;20.50;99.90;;;;;;5012729;28;20229;-67
2023/07/15 03:21:57;;;;;;;6.22;6.03;;;20.50;99.90;;;;;;5018611;28;20273;-67
2023/07/15 03:24:25;;;;;;;6.63;6.43;;;20.50;99.90;;;;;;5026947;28;20296;-66
2023/07/15 03:26:58;;;;;;;6.95;6.65;;;20.60;99.90;;;;;;5026812;28;20220;-66
2023/07/15 03:29:25;;;;;;;6.80;6.60;;;20.60;99.90;;;;;;5027438;28;20194;-66
2023/07/15 03:31:52;;;;;;;6.88;6.68;;;20.60;99.90;;;;;;5023862;28;20240;-67
2023/07/15 03:34:19;;;;;;;6.57;6.38;;;20.60;99.90;;;;;;5021159;28;20197;-66
2023/07/15 03:36:46;;;;;;;6.85;6.65;;;20.60;99.90;;;;;;5019600;28;20205;-67
2023/07/15 03:39:13;;;;;;;6.95;6.75;;;20.60;99.90;;;;;;5015428;28;20247;-66
2023/07/15 03:41:41;;;;;;;6.80;6.60;;;20.60;99.90;;;;;;5013836;28;20205;-67
2023/07/15 03:44:08;;;;;;;6.55;6.35;;;20.60;99.90;;;;;;5013274;28;20243;-68
2023/07/15 03:46:35;;;;;;;6.85;6.65;;;20.60;99.90;;;;;;5012178;28;20205;-66
2023/07/15 03:49:01;;;;;;;6.57;6.38;;;20.60;99.90;;;;;;5011795;28;20208;-68
2023/07/15 03:51:28;;;;;;;6.40;6.20;;;20.60;99.90;;;;;;5011435;28;20211;-67
2023/07/15 03:53:55;;;;;;;6.85;6.65;;;20.60;99.90;;;;;;5011584;28;20202;-67
2023/07/15 03:56:22;;;;;;;6.68;6.47;;;20.70;99.90;;;;;;5011408;28;20749;-67
2023/07/15 03:58:50;;;;;;;6.60;6.40;;;20.60;99.90;;;;;;5011498;28;20211;-65
2023/07/15 04:01:17;;;;;;;6.60;6.40;;;20.70;99.90;;;;;;5013484;28;20283;-68
2023/07/15 04:03:44;;;;;;;6.30;6.10;;;20.60;99.90;;;;;;5013838;28;20229;-67
2023/07/15 04:06:11;;;;;;;6.32;6.13;;;20.60;99.90;;;;;;5013529;28;20229;-68
2023/07/15 04:08:38;;;;;;;6.63;6.43;;;20.60;99.90;;;;;;5014040;28;20292;-66
2023/07/15 04:11:08;;;;;;;6.20;6.00;;;20.60;99.90;;;;;;5012948;28;20740;-66
2023/07/15 04:13:37;;;;;;;6.57;6.38;;;20.60;99.90;;;;;;5013701;28;20198;-68
2023/07/15 04:16:05;;;;;;;6.57;6.38;;;20.60;99.90;;;;;;5012782;28;20275;-66
2023/07/15 04:18:32;;;;;;;6.50;6.30;;;20.60;99.90;;;;;;5012196;28;20205;-68
2023/07/15 04:20:59;;;;;;;6.50;6.30;;;20.50;99.90;;;;;;5011658;28;20624;-66
2023/07/15 04:23:26;;;;;;;6.50;6.30;;;20.60;99.90;;;;;;5012048;28;20216;-67
2023/07/15 04:25:53;;;;;;;7.55;7.25;;;20.60;99.90;;;;;;5011638;28;21081;-67
2023/07/15 04:28:19;;;;;;;6.57;6.35;;;20.60;99.90;;;;;;5012250;28;20244;-68
2023/07/15 04:30:46;;;;;;;6.35;6.15;;;20.70;99.90;;;;;;5011455;28;20362;-66
2023/07/15 04:33:15;;;;;;;6.30;6.10;;;20.70;99.90;;;;;;5012013;28;20240;-67
2023/07/15 04:35:42;;;;;;;7.18;6.97;;;20.70;99.90;;;;;;5012159;28;20225;-67
2023/07/15 04:38:10;;;;;;;6.43;6.22;;;20.70;99.90;;;;;;5012541;28;20231;-66
2023/07/15 04:40:37;;;;;;;7.03;6.82;;;20.60;99.90;;;;;;5013147;28;20201;-66
2023/07/15 04:43:03;;;;;;;6.80;6.60;;;20.50;99.90;;;;;;5012803;28;20343;-67
2023/07/15 04:45:32;;;;;;;6.72;6.53;;;20.60;99.90;;;;;;5012286;28;20235;-68
2023/07/15 04:47:59;;;;;;;6.28;6.07;;;20.60;99.90;;;;;;5012238;28;20568;-66
2023/07/15 04:50:27;;;;;;;6.72;6.53;;;20.60;99.90;;;;;;5017455;28;20206;-66
2023/07/15 04:52:54;;;;;;;6.90;6.70;;;20.60;99.90;;;;;;5034928;28;20216;-68
2023/07/15 04:55:22;;;;;;;8.20;7.90;;;20.70;99.90;;;;;;5032040;28;20235;-67
2023/07/15 04:57:49;;;;;;;8.00;7.70;;;20.70;99.90;;;;;;5032891;28;20209;-68
2023/07/15 05:00:16;;;;;;;7.03;6.72;;;20.70;99.90;;;;;;5030045;28;20204;-68
2023/07/15 05:02:43;;;;;;;9.95;9.63;;;20.80;99.90;;;;;;5030377;28;20205;-67
2023/07/15 05:05:11;;;;;;;6.50;6.30;;;21.00;99.90;;;;;;5030342;28;20266;-68
2023/07/15 05:07:39;;;;;;;6.55;6.25;;;21.10;99.90;;;;;;5030132;28;20300;-69
2023/07/15 05:10:06;;;;;;;11.05;10.65;;;21.40;99.90;;;;;;5030291;28;20192;-68
2023/07/15 05:12:33;;;;;;;6.20;6.00;;;21.50;99.90;;;;;;5031490;28;20205;-68
2023/07/15 05:15:00;;;;;;;7.35;7.07;;;21.60;99.90;;;;;;5032236;28;20228;-66
2023/07/15 05:17:27;;;;;;;6.13;5.93;;;21.80;99.90;;;;;;5032081;28;20205;-68
2023/07/15 05:19:54;;;;;;;6.43;6.22;;;22.00;99.90;;;;;;5030183;28;20211;-67
2023/07/15 05:22:21;;;;;;;6.88;6.57;;;22.20;99.90;;;;;;5030591;28;20212;-68
2023/07/15 05:24:49;;;;;;;6.68;6.47;;;22.50;99.90;;;;;;5033504;28;20228;-72
2023/07/15 05:27:16;;;;;;;7.30;7.10;;;22.60;99.90;;;;;;5045505;28;20208;-68
2023/07/15 05:29:43;;;;;;;7.05;6.80;;;22.80;99.90;;;;;;5039819;28;20854;-67
2023/07/15 05:32:10;;;;;;;6.47;6.28;;;23.00;99.90;;;;;;5042763;28;20291;-68
2023/07/15 05:34:37;;;;;;;6.55;6.35;;;23.20;99.90;;;;;;5032514;28;20220;-67
2023/07/15 05:37:04;;;;;;;6.68;6.47;;;23.40;99.90;;;;;;5030628;28;20205;-67
2023/07/15 05:39:31;;;;;;;6.90;6.70;;;23.40;99.90;;;;;;5030292;28;20218;-67
2023/07/15 05:41:59;;;;;;;6.38;6.18;;;23.60;99.90;;;;;;5029967;28;20243;-68
2023/07/15 05:44:26;;;;;;;6.85;6.65;;;23.60;99.90;;;;;;5026942;28;20584;-67
2023/07/15 05:46:53;;;;;;;6.70;6.50;;;23.70;99.90;;;;;;5010242;28;20205;-66
2023/07/15 05:49:19;;;;;;;6.65;6.35;;;23.80;99.90;;;;;;5009411;28;20324;-68
2023/07/15 05:51:46;;;;;;;6.28;6.07;;;24.10;99.90;;;;;;5009638;28;20304;-68
2023/07/15 05:54:13;;;;;;;6.30;6.10;;;24.40;99.90;;;;;;5026768;28;20193;-68
2023/07/15 05:56:40;;;;;;;6.20;6.00;;;24.60;99.90;;;;;;5021775;28;20217;-67
2023/07/15 05:59:08;;;;;;;6.95;6.75;;;24.80;99.90;;;;;;5009030;28;20216;-67
2023/07/15 06:01:35;;;;;;;6.45;6.15;;;25.00;99.90;;;;;;5009962;28;20671;-67
2023/07/15 06:04:02;;;;;;;6.80;6.60;;;25.00;99.90;;;;;;5009684;28;20208;-69
2023/07/15 06:06:29;;;;;;;6.85;6.65;;;25.10;99.90;;;;;;5011501;28;20202;-67
2023/07/15 06:08:56;;;;;;;7.15;6.88;;;25.20;99.90;;;;;;5009947;28;20327;-67
2023/07/15 06:11:22;;;;;;;7.05;6.75;;;25.30;99.90;;;;;;5008950;28;20216;-67
2023/07/15 06:13:49;;;;;;;7.20;7.00;;;25.50;99.90;;;;;;5009502;28;20297;-68
2023/07/15 06:16:17;;;;;;;6.82;6.63;;;25.60;99.90;;;;;;5016062;28;20236;-68
2023/07/15 06:18:44;;;;;;;7.60;7.30;;;25.70;99.90;;;;;;5018751;28;20216;-68
2023/07/15 06:21:11;;;;;;;7.82;7.53;;;25.90;99.90;;;;;;5010528;28;20300;-68
2023/07/15 06:23:38;;;;;;;8.32;8.02;;;26.00;99.90;;;;;;5009494;28;20209;-68
2023/07/15 06:26:05;;;;;;;7.15;6.95;;;26.20;99.90;;;;;;5048933;22;20232;-67
2023/07/15 06:28:31;;;;;;;7.47;7.28;;;26.30;99.90;;;;;;5049714;28;20204;-69
2023/07/15 06:31:02;;;;;;;9.90;9.60;;;26.50;99.90;;;;;;5049510;28;20668;-69
2023/07/15 06:33:30;;;;;;;11.40;11.00;;;26.60;99.90;;;;;;5020619;28;20200;-66
2023/07/15 06:35:57;;;;;;;9.18;8.88;;;26.70;99.90;;;;;;5030716;28;20229;-66
2023/07/15 06:38:24;;;;;;;9.63;9.32;;;26.90;99.90;;;;;;5027589;28;20610;-71
2023/07/15 06:40:51;;;;;;;10.20;9.90;;;27.20;99.90;;;;;;5028308;28;20204;-68
2023/07/15 06:43:18;;;;;;;10.98;10.57;;;27.50;99.90;;;;;;5029673;28;20200;-68
2023/07/15 06:45:45;;;;;;;12.52;12.13;;;27.80;99.90;;;;;;5027029;28;20247;-67
2023/07/15 06:48:13;;;;;;;12.20;11.80;;;27.90;99.90;;;;;;5032090;28;20204;-69
2023/07/15 06:50:41;;;;;;;12.07;11.68;;;27.80;99.90;;;;;;5035326;28;20209;-67
2023/07/15 06:53:08;;;;;;;12.23;11.82;;;27.70;99.90;;;;;;5046397;28;20216;-66
2023/07/15 06:55:35;;;;;;;12.30;11.80;;;27.60;99.90;;;;;;5036234;28;20243;-67
2023/07/15 06:58:03;;;;;;;11.90;11.50;;;27.50;99.90;;;;;;5032858;28;20299;-67
2023/07/15 07:00:30;;;;;;;12.23;11.82;;;27.50;99.90;;;;;;5033034;28;20219;-69
2023/07/15 07:02:58;;;;;;;13.15;12.65;;;27.70;99.90;;;;;;5031176;28;20591;-67
2023/07/15 07:05:25;;;;;;;13.15;12.73;;;28.00;99.90;;;;;;5031647;28;20335;-69
2023/07/15 07:07:54;;;;;;;12.90;12.50;;;28.10;99.90;;;;;;5033180;28;20204;-69
2023/07/15 07:10:21;;;;;;;12.85;12.45;;;28.10;99.90;;;;;;5038518;28;20288;-68
2023/07/15 07:12:48;;;;;;;13.35;12.88;;;28.00;99.90;;;;;;5037992;28;20608;-68
2023/07/15 07:15:15;;;;;;;11.98;11.57;;;27.90;99.90;;;;;;5035387;28;20220;-68
2023/07/15 07:17:42;;;;;;;12.50;12.05;;;27.90;99.90;;;;;;5037059;28;20662;-68
2023/07/15 07:20:09;;;;;;;13.40;12.95;;;27.90;99.90;;;;;;5033434;28;20193;-68
2023/07/15 07:22:36;;;;;;;12.52;12.13;;;27.90;99.90;;;;;;5027399;28;20207;-67
2023/07/15 07:25:05;;;;;;;14.32;13.82;;;27.90;99.90;;;;;;5024261;28;20232;-68
2023/07/15 07:27:32;;;;;;;13.93;13.43;;;28.10;99.90;;;;;;5026512;28;20223;-69
2023/07/15 07:29:59;;;;;;;13.80;13.30;;;28.20;99.90;;;;;;5023571;28;20733;-67
2023/07/15 07:32:26;;;;;;;14.85;14.35;;;28.50;99.90;;;;;;5024240;28;20228;-69
2023/07/15 07:34:53;;;;;;;16.23;15.68;;;28.80;99.90;;;;;;5025172;28;20226;-68
2023/07/15 07:37:21;;;;;;;15.05;14.52;;;28.90;99.90;;;;;;5025920;28;20215;-70
2023/07/15 07:39:47;;;;;;;14.00;13.50;;;28.80;99.90;;;;;;5032379;28;20204;-69
2023/07/15 07:42:16;;;;;;;14.18;13.68;;;28.80;99.90;;;;;;5034034;28;20204;-69
2023/07/15 07:44:42;;;;;;;15.43;14.93;;;28.90;99.90;;;;;;5041162;28;20819;-63
2023/07/15 07:47:09;;;;;;;15.70;15.20;;;29.20;99.90;;;;;;5041569;28;20206;-69
2023/07/15 07:49:36;;;;;;;16.60;16.00;;;29.50;99.90;;;;;;5030675;28;20858;-69
2023/07/15 07:52:04;;;;;;;16.40;15.82;;;29.50;99.90;;;;;;5027710;28;20208;-66
2023/07/15 07:54:30;;;;;;;16.17;15.57;;;29.60;99.90;;;;;;5025881;28;20213;-68
2023/07/15 07:56:57;;;;;;;19.15;18.45;;;29.70;99.90;;;;;;5030014;28;20207;-69
2023/07/15 07:59:26;;;;;;;23.77;22.98;;;30.00;99.90;;;;;;5030959;28;20758;-70
2023/07/15 08:01:53;;;;;;;19.20;18.48;;;30.20;99.90;;;;;;5032361;28;20224;-69
2023/07/15 08:04:20;;;;;;;17.60;17.00;;;30.20;99.90;;;;;;5033748;28;20201;-69
2023/07/15 08:06:47;;;;;;;20.13;19.42;;;30.40;99.90;;;;;;5040933;28;20239;-68
2023/07/15 08:09:13;;;;;;;20.58;19.88;;;30.70;99.90;;;;;;5031927;28;20211;-67
2023/07/15 08:11:42;;;;;;;20.20;19.50;;;30.90;99.90;;;;;;5032970;28;20212;-68
2023/07/15 08:14:09;;;;;;;73.65;70.05;;;31.20;99.90;;;;;;5033796;28;20258;-68
2023/07/15 08:16:39;;;;;;;22.70;21.90;;;30.80;99.90;;;;;;5033562;28;20229;-68
2023/07/15 08:19:07;;;;;;;78.90;74.80;;;30.30;99.90;;;;;;5031840;28;20235;-66
2023/07/15 08:21:34;;;;;;;21.40;20.63;;;29.90;99.90;;;;;;5032335;28;20205;-66
2023/07/15 08:24:02;;;;;;;22.52;21.73;;;29.60;99.90;;;;;;5032468;28;20211;-69
2023/07/15 08:26:29;;;;;;;23.17;22.38;;;29.50;99.90;;;;;;5031605;28;20717;-68
2023/07/15 08:28:58;;;;;;;43.20;41.45;;;29.40;99.90;;;;;;5028685;28;20197;-68
2023/07/15 08:31:25;;;;;;;16.08;15.50;;;29.40;99.90;;;;;;5030598;28;20601;-70
2023/07/15 08:33:53;;;;;;;16.98;16.38;;;29.20;99.90;;;;;;5031156;28;20212;-66
2023/07/15 08:36:20;;;;;;;16.70;16.10;;;29.20;99.90;;;;;;5031410;28;20216;-65
2023/07/15 08:38:47;;;;;;;17.58;16.98;;;29.10;99.90;;;;;;5031620;28;20291;-68
2023/07/15 08:41:16;;;;;;;15.27;14.77;;;29.10;99.90;;;;;;5030575;28;20197;-68
2023/07/15 08:43:45;;;;;;;19.58;18.88;;;29.10;99.90;;;;;;5032141;28;20296;-68
2023/07/15 08:46:27;;;;;;;18.92;18.30;;;29.10;99.90;;;;;;5031984;28;20283;-69
2023/07/15 08:48:56;;;;;;;16.55;15.95;;;29.00;99.90;;;;;;5038587;28;20568;-68
2023/07/15 08:51:25;;;;;;;15.48;14.93;;;29.00;99.90;;;;;;5031258;28;20290;-68
2023/07/15 08:53:53;;;;;;;15.13;14.63;;;29.00;99.90;;;;;;5031682;28;20197;-69
2023/07/15 08:56:23;;;;;;;16.15;15.55;;;28.90;99.90;;;;;;5031532;28;20213;-68
2023/07/15 08:58:50;;;;;;;16.77;16.17;;;28.90;99.90;;;;;;5031933;28;20615;-70
2023/07/15 09:01:17;;;;;;;14.98;14.48;;;28.80;99.90;;;;;;5026808;28;20287;-68
2023/07/15 09:03:44;;;;;;;19.88;19.15;;;28.80;99.90;;;;;;5030934;28;20283;-68
2023/07/15 09:06:13;;;;;;;15.80;15.20;;;28.70;99.90;;;;;;5030777;28;20224;-67
2023/07/15 09:08:42;;;;;;;15.52;14.93;;;28.50;99.90;;;;;;5031476;28;20228;-67
2023/07/15 09:11:12;;;;;;;15.68;15.07;;;28.60;99.90;;;;;;5030002;28;20254;-68
2023/07/15 09:13:40;;;;;;;17.95;17.30;;;28.60;99.90;;;;;;5024632;28;20211;-68
2023/07/15 09:16:06;;;;;;;17.98;17.27;;;28.70;99.90;;;;;;5030795;28;20339;-68
2023/07/15 09:18:39;;;;;;;16.95;16.35;;;28.70;99.90;;;;;;5031645;28;20220;-67
2023/07/15 09:21:12;;;;;;;13.00;12.50;;;28.70;99.90;;;;;;5032080;28;20262;-67
2023/07/15 09:23:40;;;;;;;23.65;22.80;;;28.80;99.90;;;;;;5031909;28;20903;-67
2023/07/15 09:26:08;;;;;;;23.48;22.55;;;28.80;99.90;;;;;;5030702;28;20229;-69
2023/07/15 09:28:35;;;;;;;18.45;17.75;;;28.80;99.90;;;;;;5030093;28;20208;-68
2023/07/15 09:31:02;;;;;;;53.22;50.42;;;28.70;99.90;;;;;;5029738;28;20211;-69
2023/07/15 09:33:35;;;;;;;35.47;33.88;;;28.60;99.90;;;;;;5030161;28;20217;-69
2023/07/15 09:36:02;;;;;;;38.78;37.22;;;28.60;99.90;;;;;;5030594;28;20271;-65
2023/07/15 09:38:35;;;;;;;16.42;15.82;;;28.50;99.90;;;;;;5031289;28;20213;-69
2023/07/15 09:41:04;;;;;;;30.80;29.63;;;28.40;99.90;;;;;;5030658;28;20209;-66
2023/07/15 09:43:46;;;;;;;21.92;21.13;;;28.60;99.90;;;;;;5031784;28;20224;-69
2023/07/15 09:46:15;;;;;;;15.05;14.55;;;29.00;99.90;;;;;;5031293;28;20645;-68
2023/07/15 09:48:43;;;;;;;28.25;27.15;;;29.10;99.90;;;;;;5037591;28;20741;-68
2023/07/15 09:51:12;;;;;;;19.88;19.17;;;29.40;99.90;;;;;;5030647;28;20208;-68
2023/07/15 09:53:44;;;;;;;18.52;17.83;;;29.60;99.90;;;;;;5030594;28;20209;-68
2023/07/15 09:56:11;;;;;;;16.02;15.50;;;29.70;99.90;;;;;;5033223;28;20235;-66
2023/07/15 09:58:40;;;;;;;17.92;17.33;;;29.80;99.90;;;;;;5030418;28;20209;-68
2023/07/15 10:01:13;;;;;;;30.38;29.23;;;30.00;99.90;;;;;;5028917;28;20205;-68
2023/07/15 10:03:43;;;;;;;71.10;67.75;;;30.40;99.90;;;;;;5031238;28;20635;-68
2023/07/15 10:06:12;;;;;;;18.35;17.65;;;30.40;99.90;;;;;;5029891;28;20307;-68
2023/07/15 10:08:41;;;;;;;19.42;18.73;;;30.10;99.90;;;;;;5029698;28;20280;-70
2023/07/15 10:11:10;;;;;;;18.50;17.90;;;30.20;99.90;;;;;;5030784;28;20206;-68
2023/07/15 10:13:37;;;;;;;20.20;19.50;;;30.30;99.90;;;;;;5032054;28;20279;-69
2023/07/15 10:16:05;;;;;;;19.98;19.20;;;30.50;99.90;;;;;;5032069;28;20221;-69
2023/07/15 10:18:32;;;;;;;36.38;35.08;;;30.40;99.90;;;;;;5032575;28;20314;-68
2023/07/15 10:21:03;;;;;;;26.15;25.20;;;30.40;99.90;;;;;;5043831;28;20215;-72
2023/07/15 10:23:32;;;;;;;20.63;19.83;;;30.30;99.90;;;;;;5033473;28;20207;-70
2023/07/15 10:26:03;;;;;;;21.75;20.95;;;30.30;99.90;;;;;;5030983;28;20230;-69
2023/07/15 10:28:33;;;;;;;20.65;19.95;;;30.40;99.90;;;;;;5031189;28;20693;-69
2023/07/15 10:31:08;;;;;;;21.08;20.38;;;30.50;99.90;;;;;;5046741;28;20269;-70
2023/07/15 10:33:36;;;;;;;25.33;24.42;;;30.60;99.90;;;;;;5051206;28;20208;-69
2023/07/15 10:36:05;;;;;;;24.10;23.20;;;31.10;99.90;;;;;;5045543;28;20717;-69
2023/07/15 10:38:33;;;;;;;23.02;22.23;;;31.00;99.90;;;;;;5031598;28;20287;-69
2023/07/15 10:41:03;;;;;;;28.05;27.05;;;31.10;99.90;;;;;;5027963;28;20201;-68
2023/07/15 10:43:38;;;;;;;24.83;23.95;;;31.30;99.90;;;;;;5023588;28;20741;-69
2023/07/15 10:46:06;;;;;;;24.85;23.95;;;31.30;99.90;;;;;;5017191;28;20224;-69
2023/07/15 10:48:34;;;;;;;92.40;87.63;;;31.60;99.90;;;;;;5031167;28;20199;-68
2023/07/15 10:51:03;;;;;;;18.67;18.08;;;31.70;99.90;;;;;;5030425;28;20209;-69
2023/07/15 10:53:30;;;;;;;49.70;47.72;;;31.70;99.90;;;;;;5023379;28;20201;-67
2023/07/15 10:56:03;;;;;;;24.98;24.08;;;31.50;99.90;;;;;;5031325;28;20224;-68
2023/07/15 10:58:32;;;;;;;24.55;23.65;;;31.60;99.90;;;;;;5031581;28;20204;-69
2023/07/15 11:01:00;;;;;;;24.42;23.52;;;31.70;99.90;;;;;;5030410;28;20204;-68
2023/07/15 11:03:28;;;;;;;19.95;19.25;;;31.50;99.90;;;;;;5030747;28;20201;-67
2023/07/15 11:05:57;;;;;;;19.15;18.45;;;31.40;99.90;;;;;;5031131;28;20220;-67
2023/07/15 11:08:24;;;;;;;19.05;18.25;;;31.40;99.90;;;;;;5030142;28;20204;-69
2023/07/15 11:10:57;;;;;;;19.33;18.63;;;31.40;99.90;;;;;;5030760;28;20197;-68
2023/07/15 11:13:25;;;;;;;18.45;17.77;;;31.50;99.90;;;;;;5028051;28;20296;-68
2023/07/15 11:15:52;;;;;;;18.20;17.60;;;31.60;99.90;;;;;;5030847;28;20642;-68
2023/07/15 11:18:21;;;;;;;18.58;17.98;;;31.70;99.90;;;;;;5031442;28;20209;-67
2023/07/15 11:20:49;;;;;;;36.03;34.58;;;31.70;99.90;;;;;;5029194;28;20331;-67
2023/07/15 11:23:17;;;;;;;37.22;35.67;;;31.80;99.90;;;;;;5024339;28;20293;-68
2023/07/15 11:25:44;;;;;;;19.73;19.02;;;31.90;99.90;;;;;;5021842;28;20236;-68
2023/07/15 11:28:11;;;;;;;19.95;19.25;;;32.30;99.90;;;;;;5021918;28;20208;-67
2023/07/15 11:30:41;;;;;;;22.50;21.70;;;32.50;99.90;;;;;;5023100;28;20206;-69
2023/07/15 11:33:08;;;;;;;18.70;18.00;;;32.50;99.90;;;;;;5022328;28;20288;-68
2023/07/15 11:35:37;;;;;;;20.48;19.77;;;32.80;99.90;;;;;;5025005;28;20228;-69
2023/07/15 11:38:08;;;;;;;18.70;18.08;;;32.70;99.90;;;;;;5032878;28;20937;-69
2023/07/15 11:40:36;;;;;;;28.30;27.25;;;32.80;99.90;;;;;;5030263;28;20215;-65
2023/07/15 11:43:06;;;;;;;22.10;21.33;;;33.00;99.90;;;;;;5033501;28;20228;-65
2023/07/15 11:45:33;;;;;;;15.80;15.30;;;33.10;99.90;;;;;;5033059;28;20656;-63
2023/07/15 11:48:01;;;;;;;17.23;16.63;;;33.20;99.90;;;;;;5027757;28;20225;-65
2023/07/15 11:50:28;;;;;;;13.48;12.98;;;33.20;99.90;;;;;;5029870;28;20211;-68
2023/07/15 11:52:58;;;;;;;13.70;13.20;;;33.40;99.90;;;;;;5042466;28;20228;-64
2023/07/15 11:55:26;;;;;;;16.35;15.75;;;33.50;99.90;;;;;;5032953;28;20637;-66
2023/07/15 11:57:53;;;;;;;16.10;15.50;;;33.70;99.90;;;;;;5025043;28;20208;-64
2023/07/15 12:00:32;;;;;;;13.45;12.95;;;33.70;99.90;;;;;;5030669;28;20209;-63
2023/07/15 12:03:07;;;;;;;12.10;11.70;;;33.90;99.90;;;;;;5030075;28;20203;-65
2023/07/15 12:05:38;;;;;;;11.98;11.57;;;33.80;99.90;;;;;;5032419;28;20220;-66
2023/07/15 12:08:12;;;;;;;11.13;10.70;;;33.90;99.90;;;;;;5034758;28;20231;-66
2023/07/15 12:10:49;;;;;;;11.27;10.88;;;34.10;99.90;;;;;;5031753;28;20640;-66
2023/07/15 12:13:16;;;;;;;12.05;11.60;;;34.20;99.90;;;;;;5032408;28;20695;-66
2023/07/15 12:15:43;;;;;;;10.73;10.32;;;34.10;99.90;;;;;;5032253;28;20267;-66
2023/07/15 12:18:12;;;;;;;11.75;11.35;;;34.00;99.90;;;;;;5027162;28;20202;-67
2023/07/15 12:20:39;;;;;;;10.20;9.80;;;34.10;99.90;;;;;;5028162;28;20208;-66
2023/07/15 12:23:09;;;;;;;11.30;10.80;;;34.30;99.90;;;;;;5029030;28;20278;-66
2023/07/15 12:25:36;;;;;;;11.30;10.90;;;34.40;99.90;;;;;;5030230;28;20316;-66
2023/07/15 12:28:03;;;;;;;61.67;58.28;;;34.30;99.90;;;;;;5030687;28;20231;-64
2023/07/15 12:30:29;;;;;;;15.38;14.80;;;34.30;99.90;;;;;;5032303;22;20229;-66
2023/07/15 12:32:56;;;;;;;31.88;30.33;;;34.10;99.90;;;;;;5015279;28;20205;-65
2023/07/15 12:35:25;;;;;;;17.20;16.55;;;34.00;99.90;;;;;;5017717;28;20213;-65
2023/07/15 12:37:53;;;;;;;10.88;10.48;;;34.00;99.90;;;;;;5023033;28;20719;-66
2023/07/15 12:40:19;;;;;;;12.23;11.73;;;34.10;99.90;;;;;;5017990;28;20304;-64
2023/07/15 12:42:46;;;;;;;10.77;10.38;;;34.30;99.90;;;;;;5022113;28;20231;-66